createdAt,value
2023-10-09T00:06:18.394Z,0.03
2023-10-09T00:36:37.619Z,0.03
2023-10-09T01:06:56.397Z,0.03
2023-10-09T01:37:15.777Z,0.03
2023-10-09T02:07:33.484Z,0.03
2023-10-09T02:37:49.791Z,0.03
2023-10-09T03:08:08.594Z,0.03
2023-10-09T03:38:25.466Z,0.03
2023-10-09T04:08:46.490Z,0.03
2023-10-09T04:39:05.518Z,0.03
2023-10-09T05:09:24.892Z,0.03
2023-10-09T05:39:42.862Z,0.03
2023-10-09T06:10:01.674Z,0.03
2023-10-09T06:40:22.676Z,0.04
2023-10-09T07:10:41.050Z,0.03
2023-10-09T07:41:01.160Z,0.04
2023-10-09T08:11:20.203Z,0.04
2023-10-09T08:41:41.154Z,0.04
2023-10-09T09:11:58.739Z,0.05
2023-10-09T09:42:19.779Z,0.06
2023-10-09T10:42:59.326Z,0.06
2023-10-09T11:13:23.571Z,0.06
2023-10-09T11:43:50.533Z,0.06
2023-10-09T13:14:38.112Z,0.06
2023-10-09T13:44:56.691Z,0.06
2023-10-09T14:15:14.648Z,0.06
2023-10-09T14:45:34.080Z,0.06
2023-10-09T15:15:51.551Z,0.06
2023-10-09T15:46:06.828Z,0.07
2023-10-09T16:16:22.520Z,0.07
2023-10-09T16:46:37.477Z,0.08
2023-10-09T17:16:53.275Z,0.08
2023-10-09T17:47:09.662Z,0.08
2023-10-09T18:17:26.520Z,0.09
2023-10-09T18:47:42.795Z,0.09
2023-10-09T19:18:00.584Z,0.09
2023-10-09T19:48:17.776Z,0.09
2023-10-09T20:18:35.104Z,0.09
2023-10-09T20:48:51.061Z,0.09
2023-10-09T21:19:09.096Z,0.1
2023-10-09T21:49:27.217Z,0.1
2023-10-09T22:19:45.536Z,0.1
2023-10-09T23:20:21.094Z,0.09
2023-10-09T23:50:39.094Z,0.09
